createdAt,value
2022-11-15T11:24:59.448Z,84.56
2022-11-15T11:27:43.646Z,86.10
2022-11-15T11:30:20.217Z,86.74
2022-11-15T11:33:09.097Z,87.21
2022-11-15T11:35:47.264Z,87.88
2022-11-15T11:38:28.911Z,88.13
2022-11-15T11:41:06.710Z,87.99
2022-11-15T11:43:45.008Z,88.38
2022-11-15T11:46:33.839Z,88.32
2022-11-15T11:49:10.971Z,88.68
2022-11-15T11:51:45.046Z,88.54
2022-11-15T11:54:20.929Z,88.39
2022-11-15T11:56:51.738Z,88.69
2022-11-15T11:59:29.372Z,88.46
2022-11-15T12:02:00.252Z,88.53
2022-11-15T12:04:33.811Z,88.20
2022-11-15T12:07:07.800Z,88.37
2022-11-15T12:09:43.919Z,88.14
2022-11-15T12:12:21.775Z,87.75
2022-11-15T12:14:55.374Z,87.96
2022-11-15T12:17:27.860Z,87.63
2022-11-15T12:20:01.444Z,87.55
2022-11-15T12:22:39.963Z,88.03
2022-11-15T12:25:18.180Z,87.98
2022-11-15T12:27:53.914Z,87.71
2022-11-15T12:30:25.443Z,87.72
2022-11-15T12:32:58.091Z,87.53
2022-11-15T12:35:37.093Z,87.54
2022-11-15T12:38:06.726Z,87.64
2022-11-15T12:40:39.028Z,87.53
2022-11-15T12:43:41.899Z,87.61
2022-11-15T12:46:16.401Z,87.33
2022-11-15T12:48:51.515Z,87.63
2022-11-15T12:51:24.047Z,87.52
2022-11-15T12:53:55.247Z,87.54
2022-11-15T12:56:25.549Z,87.18
2022-11-15T12:58:58.959Z,87.26
2022-11-15T13:01:58.965Z,87.38
2022-11-15T13:04:33.347Z,87.47
2022-11-15T13:07:04.890Z,87.31
2022-11-15T13:09:57.937Z,87.53
2022-11-15T13:13:03.586Z,87.18
2022-11-15T13:15:49.432Z,87.17
2022-11-15T13:18:35.751Z,87.38
2022-11-15T13:21:29.267Z,86.83
2022-11-15T13:23:58.752Z,86.85
2022-11-15T13:26:28.043Z,86.92
2022-11-15T13:28:57.743Z,86.97
2022-11-15T13:31:39.411Z,87.13
2022-11-15T13:34:50.123Z,87.50
2022-11-15T13:37:31.303Z,87.29
2022-11-15T13:40:13.123Z,87.04
2022-11-15T13:42:45.739Z,87.34
2022-11-15T13:45:21.079Z,87.47
2022-11-15T13:47:57.980Z,87.48
2022-11-15T13:50:31.269Z,87.37
2022-11-15T13:53:03.107Z,87.74
2022-11-15T13:55:35.227Z,87.47
2022-11-15T13:58:08.349Z,87.98
2022-11-15T14:00:41.536Z,88.02
2022-11-15T14:03:29.136Z,88.09
2022-11-15T14:06:11.899Z,87.75
2022-11-15T14:08:42.117Z,87.80
2022-11-15T14:11:15.449Z,87.45
2022-11-15T14:13:45.820Z,87.44
2022-11-15T14:16:20.363Z,87.69
2022-11-15T14:18:52.897Z,87.41
2022-11-15T14:21:23.178Z,86.73
2022-11-15T14:23:53.095Z,86.38
2022-11-15T14:26:33.702Z,86.43
2022-11-15T14:29:27.800Z,86.50
2022-11-15T14:32:08.240Z,86.26
2022-11-15T14:34:38.817Z,86.66
2022-11-15T14:37:08.133Z,86.55
2022-11-15T14:39:40.240Z,86.72
2022-11-15T14:42:12.380Z,86.45
2022-11-15T14:44:46.097Z,86.62
2022-11-15T14:47:15.790Z,86.38
2022-11-15T14:49:48.440Z,86.43
2022-11-15T14:52:33.168Z,87.02
2022-11-15T14:55:03.780Z,87.13
2022-11-15T14:57:33.414Z,86.95
2022-11-15T15:00:03.704Z,86.77
2022-11-15T15:02:35.495Z,86.40
2022-11-15T15:05:17.626Z,85.97
2022-11-15T15:07:47.488Z,86.34
2022-11-15T15:13:08.687Z,86.29
2022-11-15T15:15:39.368Z,86.43
2022-11-15T15:18:09.954Z,86.29
2022-11-15T15:20:42.510Z,86.75
2022-11-15T15:23:18.941Z,86.15
2022-11-15T15:25:50.531Z,86.47
2022-11-15T15:28:20.720Z,86.59
2022-11-15T15:30:51.479Z,86.20
2022-11-15T15:33:21.860Z,85.95
2022-11-15T15:35:54.252Z,85.75
2022-11-15T15:38:24.578Z,86.30
2022-11-15T15:40:56.543Z,86.01
2022-11-15T15:43:26.698Z,86.00
2022-11-15T15:46:00.501Z,86.01
2022-11-15T15:48:30.677Z,85.87
2022-11-15T15:51:09.127Z,86.16
2022-11-15T15:53:43.345Z,86.21
2022-11-15T15:56:15.902Z,86.53
2022-11-15T15:58:46.137Z,86.79
2022-11-15T16:01:16.579Z,86.88
2022-11-15T16:03:49.042Z,87.00
2022-11-15T16:06:42.921Z,86.75
2022-11-15T16:09:18.463Z,86.78
2022-11-15T16:11:50.246Z,86.74
2022-11-15T16:14:21.275Z,86.78
2022-11-15T16:16:57.611Z,86.40
2022-11-15T16:19:28.467Z,86.19
2022-11-15T16:22:00.369Z,86.46
2022-11-15T16:24:31.447Z,86.43
2022-11-15T16:27:03.387Z,86.11
2022-11-15T16:29:35.680Z,86.57
2022-11-15T16:32:07.094Z,86.42
2022-11-15T16:34:41.867Z,86.64
2022-11-15T16:37:26.160Z,86.64
2022-11-15T16:40:01.020Z,86.64
2022-11-15T16:42:32.158Z,86.38
2022-11-15T16:45:03.058Z,86.72
2022-11-15T16:47:34.110Z,86.44
2022-11-15T16:50:04.758Z,86.67
2022-11-15T16:52:38.958Z,86.40
2022-11-15T16:55:13.916Z,86.29
2022-11-15T16:57:48.382Z,86.49
2022-11-15T17:00:25.085Z,86.61
2022-11-15T17:02:57.906Z,86.67
2022-11-15T17:05:33.891Z,86.66
2022-11-15T17:08:14.326Z,86.54
2022-11-15T17:10:47.010Z,86.61
2022-11-15T17:13:20.361Z,86.96
2022-11-15T17:15:53.496Z,86.79
2022-11-15T17:18:26.538Z,86.78
2022-11-15T17:21:01.312Z,86.64
2022-11-15T17:23:37.320Z,86.85
2022-11-15T17:29:09.334Z,86.80
2022-11-15T17:31:49.629Z,86.83
2022-11-15T17:34:24.632Z,86.50
2022-11-15T17:37:03.252Z,86.50
2022-11-15T17:39:36.607Z,86.30
2022-11-15T17:42:10.293Z,86.71
2022-11-15T17:44:42.616Z,86.13
2022-11-15T17:47:25.200Z,86.34
2022-11-15T17:49:57.035Z,86.60
2022-11-15T17:52:29.484Z,86.15
2022-11-15T17:55:04.564Z,86.31
2022-11-15T17:57:35.872Z,86.22
2022-11-15T18:00:13.181Z,86.38
2022-11-15T18:02:44.698Z,86.10
2022-11-15T18:05:17.195Z,85.82
2022-11-15T18:07:52.380Z,86.07
2022-11-15T18:10:25.751Z,86.38
2022-11-15T18:12:59.864Z,86.28
2022-11-15T18:15:30.667Z,86.51
2022-11-15T18:18:03.060Z,86.21
2022-11-15T18:20:34.837Z,86.09
2022-11-15T18:23:05.633Z,86.31
2022-11-15T18:25:42.006Z,86.06
2022-11-15T18:28:20.722Z,86.01
2022-11-15T18:30:55.146Z,86.16
2022-11-15T18:33:32.579Z,86.28
2022-11-15T18:36:04.606Z,86.36
2022-11-15T18:38:37.462Z,85.88
2022-11-15T18:41:16.074Z,86.34
2022-11-15T18:43:47.418Z,86.21
2022-11-15T18:46:20.323Z,85.70
2022-11-15T18:48:52.481Z,86.29
2022-11-15T18:51:26.592Z,86.01
2022-11-15T18:53:56.990Z,85.67
2022-11-15T18:56:35.822Z,85.85
2022-11-15T18:59:10.157Z,85.73
2022-11-15T19:01:41.972Z,86.04
2022-11-15T19:04:13.512Z,85.71
2022-11-15T19:06:45.148Z,86.00
2022-11-15T19:09:18.296Z,86.25
2022-11-15T19:11:52.051Z,85.87
2022-11-15T19:14:30.185Z,85.82
2022-11-15T19:17:05.619Z,85.77
2022-11-15T19:19:37.730Z,85.69
2022-11-15T19:22:11.570Z,85.74
2022-11-15T19:24:44.403Z,85.99
2022-11-15T19:27:37.195Z,85.73
2022-11-15T19:30:11.468Z,86.25
2022-11-15T19:32:44.805Z,86.36
2022-11-15T19:35:16.687Z,86.42
2022-11-15T19:37:53.663Z,86.15
2022-11-15T19:40:28.474Z,86.12
2022-11-15T19:43:04.348Z,86.35
2022-11-15T19:45:38.655Z,86.50
2022-11-15T19:48:10.898Z,85.95
2022-11-15T19:50:42.666Z,86.16
2022-11-15T19:53:14.134Z,86.16
2022-11-15T19:55:45.561Z,85.75
2022-11-15T19:58:18.567Z,86.12
2022-11-15T20:00:57.523Z,86.29
2022-11-15T20:03:30.760Z,86.20
2022-11-15T20:06:10.856Z,86.02
2022-11-15T20:08:45.162Z,85.66
2022-11-15T20:11:19.159Z,85.62
2022-11-15T20:13:52.752Z,85.84
2022-11-15T20:16:25.747Z,85.84
2022-11-15T20:18:59.275Z,85.86
2022-11-15T20:21:31.931Z,85.72
2022-11-15T20:24:03.324Z,85.96
2022-11-15T20:26:37.993Z,86.07
2022-11-15T20:29:12.504Z,86.00
2022-11-15T20:31:44.248Z,86.21
2022-11-15T20:34:16.100Z,85.92
2022-11-15T20:36:48.785Z,86.08
2022-11-15T20:39:20.658Z,85.95
2022-11-15T20:41:52.570Z,86.38
2022-11-15T20:44:41.886Z,85.92
2022-11-15T20:47:15.758Z,86.11
2022-11-15T20:49:47.967Z,86.01
2022-11-15T20:52:19.734Z,85.96
2022-11-15T20:54:51.698Z,86.28
2022-11-15T20:57:27.048Z,86.19
2022-11-15T21:00:05.614Z,86.31
2022-11-15T21:02:42.934Z,86.41
2022-11-15T21:05:18.484Z,86.13
2022-11-15T21:07:50.253Z,85.99
2022-11-15T21:10:40.985Z,86.62
2022-11-15T21:13:13.207Z,86.44
2022-11-15T21:15:48.790Z,86.59
2022-11-15T21:18:21.228Z,86.47
2022-11-15T21:20:55.067Z,86.55
2022-11-15T21:23:26.537Z,86.50
2022-11-15T21:26:05.418Z,86.87
2022-11-15T21:28:38.207Z,86.63
2022-11-15T21:31:15.393Z,86.69
2022-11-15T21:33:47.459Z,86.22
2022-11-15T21:36:18.686Z,86.73
2022-11-15T21:38:49.834Z,86.81
2022-11-15T21:42:24.726Z,86.83
2022-11-15T21:44:57.016Z,86.83
2022-11-15T21:47:30.343Z,87.04
2022-11-15T21:50:03.496Z,86.80
2022-11-15T21:52:35.219Z,86.67
2022-11-15T21:55:07.368Z,87.03
2022-11-15T21:57:41.416Z,87.01
2022-11-15T22:00:33.430Z,86.60
2022-11-15T22:03:07.344Z,86.87
2022-11-15T22:05:46.429Z,86.90
2022-11-15T22:08:18.893Z,86.43
2022-11-15T22:10:54.218Z,86.81
2022-11-15T22:13:25.969Z,87.06
2022-11-15T22:15:58.661Z,87.04
2022-11-15T22:18:32.741Z,86.79
2022-11-15T22:21:08.555Z,86.84
2022-11-15T22:23:40.209Z,87.00
2022-11-15T22:26:16.543Z,87.11
2022-11-15T22:28:51.098Z,87.03
2022-11-15T22:31:22.971Z,86.96
2022-11-15T22:33:59.991Z,86.91
2022-11-15T22:36:52.225Z,86.79
2022-11-15T22:39:28.078Z,86.69
2022-11-15T22:42:00.441Z,86.76
2022-11-15T22:44:34.084Z,86.67
2022-11-15T22:47:06.617Z,86.67
2022-11-15T22:49:41.371Z,86.94
2022-11-15T22:52:15.155Z,86.83
2022-11-15T22:54:47.723Z,86.86
2022-11-15T22:57:20.124Z,86.51
2022-11-15T22:59:56.140Z,86.95
2022-11-15T23:02:27.023Z,86.63
2022-11-15T23:05:04.321Z,86.59
2022-11-15T23:07:40.687Z,86.72
2022-11-15T23:10:32.920Z,86.74
2022-11-15T23:13:21.656Z,86.58
2022-11-15T23:16:11.100Z,86.90
2022-11-15T23:18:46.132Z,87.08
2022-11-15T23:21:44.894Z,87.15
2022-11-15T23:24:17.476Z,86.82
2022-11-15T23:26:51.836Z,86.72
2022-11-15T23:29:28.788Z,86.83
2022-11-15T23:32:17.307Z,87.05
2022-11-15T23:34:54.858Z,86.71
2022-11-15T23:37:31.463Z,87.21
2022-11-15T23:40:05.043Z,87.25
2022-11-15T23:42:36.938Z,87.26
2022-11-15T23:45:11.152Z,87.01
2022-11-15T23:47:42.984Z,87.02
2022-11-15T23:50:16.624Z,86.90
2022-11-15T23:52:52.473Z,87.00
2022-11-15T23:55:31.755Z,86.89
2022-11-15T23:58:04.537Z,86.52
